Time;durP1;ratioP1;P1;durP2;ratioP2;P2;SDS_P1;SDS_P2;PMS_P1;PMS_P2;Temp;Humidity;BMP_temperature;BMP_pressure;BME280_temperature;BME280_humidity;BME280_pressure;Samples;Min_cycle;Max_cycle;Signal;HPM_P1;HPM_P2
2022/09/04 00:01:12;;;;;;;3.17;2.40;;;15.50;83.50;;;14.32;100.00;96047.59;4984012;28;20456;-69
2022/09/04 00:04:06;;;;;;;3.83;2.45;;;15.50;83.40;;;14.32;100.00;96050.25;4993722;28;20030;-69
2022/09/04 00:06:37;;;;;;;3.53;2.17;;;15.50;83.40;;;14.30;100.00;96055.75;4987269;28;20112;-69
2022/09/04 00:09:31;;;;;;;4.05;2.47;;;15.50;83.50;;;14.30;100.00;96057.59;4988817;28;20564;-69
2022/09/04 00:12:10;;;;;;;4.13;2.60;;;15.50;83.40;;;14.28;100.00;96067.59;4998621;28;20093;-69
2022/09/04 00:14:53;;;;;;;6.90;4.75;;;15.50;83.40;;;14.25;100.00;96067.97;4984984;28;20041;-69
2022/09/04 00:17:45;;;;;;;14.40;10.90;;;15.40;83.70;;;14.24;100.00;96066.38;5002873;28;20038;-69
2022/09/04 00:20:31;;;;;;;13.80;11.02;;;15.40;83.80;;;14.22;100.00;96058.63;4996254;28;20031;-69
2022/09/04 00:23:32;;;;;;;5.93;3.95;;;15.40;83.70;;;14.23;100.00;96064.75;4986271;28;21719;-70
2022/09/04 00:26:40;;;;;;;3.40;2.63;;;15.50;83.70;;;14.22;100.00;96063.94;4983241;28;20041;-69
2022/09/04 00:29:17;;;;;;;2.95;2.42;;;15.50;83.50;;;14.20;100.00;96057.22;5007106;28;20065;-69
2022/09/04 00:32:12;;;;;;;2.90;2.50;;;15.40;83.50;;;14.20;100.00;96065.16;4985267;28;21799;-69
2022/09/04 00:35:02;;;;;;;3.88;2.30;;;15.40;83.60;;;14.17;100.00;96066.41;4983246;28;20057;-69
2022/09/04 00:37:38;;;;;;;3.63;2.30;;;15.30;84.10;;;14.14;100.00;96066.03;4984607;28;20038;-69
2022/09/04 00:40:20;;;;;;;3.13;2.30;;;15.30;84.40;;;14.11;100.00;96069.91;4967435;28;20471;-69
2022/09/04 00:43:26;;;;;;;3.53;2.72;;;15.20;84.60;;;14.09;100.00;96070.13;4998952;28;20039;-70
2022/09/04 00:46:00;;;;;;;5.95;2.55;;;15.20;84.90;;;14.07;100.00;96069.53;5003017;28;20053;-69
2022/09/04 00:48:48;;;;;;;5.53;2.70;;;15.30;84.80;;;14.09;100.00;96070.13;5020591;28;20075;-69
2022/09/04 00:51:38;;;;;;;3.50;2.25;;;15.20;84.50;;;14.07;100.00;96072.16;4986424;28;20038;-69
2022/09/04 00:54:44;;;;;;;2.90;2.00;;;15.20;84.40;;;14.07;100.00;96066.88;4981601;28;20038;-69
2022/09/04 00:57:59;;;;;;;2.80;2.30;;;15.20;84.30;;;14.06;100.00;96081.13;5000360;28;20043;-68
2022/09/04 01:00:26;;;;;;;2.65;2.05;;;15.20;84.00;;;14.03;100.00;96076.25;5002385;28;20034;-69
2022/09/04 01:03:07;;;;;;;4.80;2.85;;;15.20;84.10;;;14.05;100.00;96079.50;4989722;28;20081;-69
2022/09/04 01:05:58;;;;;;;5.07;2.45;;;15.20;84.10;;;14.04;100.00;96091.09;4987184;28;20041;-69
2022/09/04 01:09:01;;;;;;;5.72;2.42;;;15.20;84.10;;;14.04;100.00;96083.16;4992117;28;20053;-69
2022/09/04 01:11:42;;;;;;;3.10;2.38;;;15.20;84.10;;;14.03;100.00;96086.84;5002489;28;20409;-69
2022/09/04 01:14:33;;;;;;;4.53;2.40;;;15.20;84.30;;;14.02;100.00;96089.66;4989494;28;20045;-69
2022/09/04 01:17:14;;;;;;;;;;;15.20;84.30;;;14.00;100.00;96092.53;5005262;28;20506;-69
2022/09/04 01:20:04;;;;;;;2.75;2.13;;;15.20;84.20;;;13.99;100.00;96090.91;5001601;28;19925;-69
2022/09/04 01:23:01;;;;;;;3.17;2.22;;;15.20;84.00;;;14.00;100.00;96102.28;5003744;28;20046;-69
2022/09/04 01:25:55;;;;;;;3.33;2.70;;;15.30;83.80;;;14.00;100.00;96095.16;4985168;28;20034;-68
2022/09/04 01:28:57;;;;;;;4.03;2.55;;;15.20;83.70;;;13.99;100.00;96090.91;5004881;28;20501;-68
2022/09/04 01:32:07;;;;;;;2.97;2.22;;;15.20;83.90;;;13.99;100.00;96101.47;5003552;28;20571;-70
2022/09/04 01:35:11;;;;;;;3.50;2.53;;;15.20;84.00;;;13.99;100.00;96101.47;4986570;28;20599;-70
2022/09/04 01:38:09;;;;;;;2.92;2.60;;;15.20;84.10;;;14.00;100.00;96111.03;5007478;28;20038;-69
2022/09/04 01:40:56;;;;;;;4.30;2.70;;;15.20;84.20;;;14.01;100.00;96099.44;4965337;28;20112;-70
2022/09/04 01:43:22;;;;;;;3.63;2.70;;;15.30;84.40;;;14.02;100.00;96103.69;4971716;28;20165;-70
2022/09/04 01:46:25;;;;;;;5.30;2.63;;;15.30;84.50;;;14.05;100.00;96107.78;5001708;28;20054;-68
2022/09/04 01:49:26;;;;;;;3.55;2.70;;;15.30;84.60;;;14.05;100.00;96108.59;5005086;28;20045;-70
2022/09/04 01:52:06;;;;;;;5.70;3.00;;;15.30;84.80;;;14.06;100.00;96106.75;5002516;28;20030;-68
2022/09/04 01:54:59;;;;;;;5.45;2.80;;;15.40;84.80;;;14.07;100.00;96109.19;5001929;28;20037;-70
2022/09/04 01:58:02;;;;;;;4.03;2.80;;;15.30;84.90;;;14.09;100.00;96107.16;4984881;28;20496;-69
2022/09/04 02:00:33;;;;;;;3.33;2.78;;;15.40;84.90;;;14.09;100.00;96109.78;4994565;28;20053;-68
2022/09/04 02:03:32;;;;;;;3.45;2.80;;;15.40;84.90;;;14.12;100.00;96110.41;4975363;28;20045;-69
2022/09/04 02:06:27;;;;;;;3.83;2.88;;;15.40;84.80;;;14.13;100.00;96114.66;4972375;28;20093;-69
2022/09/04 02:08:59;;;;;;;4.25;2.88;;;15.40;84.60;;;14.09;100.00;96116.91;4979197;28;20027;-69
2022/09/04 02:11:28;;;;;;;3.17;2.58;;;15.30;84.90;;;14.07;100.00;96111.84;4987925;28;20039;-69
2022/09/04 02:14:33;;;;;;;2.90;2.42;;;15.20;84.80;;;14.07;100.00;96121.59;5001616;28;20037;-69
2022/09/04 02:17:17;;;;;;;4.28;2.40;;;15.30;84.80;;;14.02;100.00;96116.94;5002604;28;20049;-70
2022/09/04 02:20:22;;;;;;;3.58;2.47;;;15.20;84.60;;;14.01;100.00;96111.84;4979747;28;20043;-68
2022/09/04 02:23:06;;;;;;;3.70;2.40;;;15.20;84.60;;;13.99;100.00;96116.53;4980431;28;20030;-69
2022/09/04 02:25:48;;;;;;;3.03;2.50;;;15.20;84.60;;;13.96;100.00;96117.78;4998276;28;20450;-69
2022/09/04 02:28:38;;;;;;;6.15;2.40;;;15.10;84.60;;;13.95;100.00;96110.84;4976855;28;20033;-69
2022/09/04 02:31:32;;;;;;;3.35;2.30;;;15.10;84.50;;;13.94;100.00;96117.16;5004048;28;20053;-69
2022/09/04 02:34:22;;;;;;;5.53;1.90;;;15.10;84.60;;;13.92;100.00;96105.19;4982056;28;20402;-69
2022/09/04 02:36:55;;;;;;;5.03;2.55;;;15.10;84.60;;;13.89;100.00;96106.41;4983120;28;20054;-69
2022/09/04 02:39:59;;;;;;;2.72;2.08;;;15.10;84.60;;;13.90;100.00;96108.03;4999910;28;20390;-69
2022/09/04 02:42:52;;;;;;;3.20;2.00;;;15.10;84.60;;;13.92;100.00;96111.28;4992709;28;20034;-70
2022/09/04 02:46:01;;;;;;;2.78;1.85;;;15.10;84.70;;;13.93;100.00;96109.44;4984429;28;20042;-70
2022/09/04 02:49:08;;;;;;;4.82;2.00;;;15.20;84.60;;;13.93;100.00;96117.38;5004427;28;20045;-69
2022/09/04 02:52:03;;;;;;;4.28;2.13;;;15.20;84.60;;;13.93;100.00;96117.38;5002102;28;20052;-69
2022/09/04 02:54:57;;;;;;;2.88;1.90;;;15.20;84.50;;;13.93;100.00;96112.91;4961685;28;20073;-69
2022/09/04 02:58:24;;;;;;;2.50;1.90;;;15.20;84.50;;;13.94;100.00;96114.53;5000971;28;20048;-69
2022/09/04 03:01:21;;;;;;;3.38;2.15;;;15.20;84.50;;;13.95;100.00;96110.84;4970152;28;20094;-69
2022/09/04 03:04:54;;;;;;;3.42;1.75;;;15.20;84.70;;;13.98;100.00;96114.91;4979361;28;20470;-71
2022/09/04 03:07:52;;;;;;;2.15;1.83;;;15.30;84.80;;;13.99;100.00;96109.41;4985394;28;20045;-69
2022/09/04 03:10:31;;;;;;;3.25;1.80;;;15.30;84.80;;;14.00;100.00;96105.75;4964680;28;20031;-69
2022/09/04 03:13:17;;;;;;;2.53;1.83;;;15.30;84.80;;;14.01;100.00;96104.72;4976208;28;20034;-69
2022/09/04 03:16:15;;;;;;;2.42;1.85;;;15.30;84.80;;;14.00;100.00;96113.69;5001396;28;20379;-70
2022/09/04 03:19:24;;;;;;;2.88;1.90;;;15.20;85.00;;;14.02;100.00;96114.28;5001428;28;20077;-73
2022/09/04 03:21:59;;;;;;;4.95;1.83;;;15.30;85.00;;;14.02;100.00;96116.94;4980161;28;20409;-68
2022/09/04 03:24:27;;;;;;;2.70;1.95;;;15.30;85.00;;;14.01;100.00;96114.50;4972974;28;20059;-69
2022/09/04 03:27:00;;;;;;;2.25;1.73;;;15.30;85.20;;;14.03;100.00;96115.94;4986125;28;20053;-70
2022/09/04 03:29:40;;;;;;;2.95;1.80;;;15.30;85.30;;;14.05;100.00;96121.00;4997035;28;20034;-69
2022/09/04 03:32:26;;;;;;;3.90;1.80;;;15.30;85.20;;;14.01;100.00;96120.59;4983285;28;20521;-69
2022/09/04 03:35:24;;;;;;;4.30;1.58;;;15.10;85.40;;;13.98;100.00;96121.00;4970917;28;20068;-69
2022/09/04 03:37:59;;;;;;;2.40;1.60;;;15.10;85.70;;;13.96;100.00;96116.97;5010078;28;20042;-69
2022/09/04 03:40:40;;;;;;;4.65;1.77;;;15.10;85.80;;;13.97;100.00;96108.00;5000534;28;20038;-68
2022/09/04 03:43:27;;;;;;;2.95;1.67;;;15.20;85.70;;;13.99;100.00;96124.47;4986581;28;20068;-70
2022/09/04 03:46:01;;;;;;;1.90;1.50;;;15.30;85.80;;;14.03;100.00;96123.88;4995541;28;20517;-69
2022/09/04 03:48:57;;;;;;;2.50;1.80;;;15.40;85.70;;;14.03;100.00;96134.44;4981619;28;20046;-69
2022/09/04 03:51:48;;;;;;;2.53;1.85;;;15.40;85.50;;;14.03;100.00;96123.88;4994687;28;20044;-69
2022/09/04 03:54:22;;;;;;;4.18;2.03;;;15.30;85.50;;;14.02;100.00;96127.50;5000667;28;20034;-69
2022/09/04 03:57:28;;;;;;;2.65;1.70;;;15.30;85.50;;;14.02;100.00;96130.16;4988274;28;20096;-68
2022/09/04 04:00:18;;;;;;;3.20;1.63;;;15.30;85.60;;;14.05;100.00;96129.75;4985775;28;20042;-69
2022/09/04 04:03:19;;;;;;;4.05;1.80;;;15.30;85.60;;;14.07;100.00;96130.34;4993563;28;20148;-70
2022/09/04 04:06:00;;;;;;;2.58;1.60;;;15.40;85.50;;;14.10;100.00;96139.69;4978776;28;20561;-69
2022/09/04 04:08:38;;;;;;;2.70;1.83;;;15.50;85.40;;;14.12;100.00;96148.22;4981788;28;20035;-69
2022/09/04 04:11:35;;;;;;;3.58;1.75;;;15.50;85.30;;;14.15;100.00;96144.34;4983026;28;20232;-69
2022/09/04 04:14:52;;;;;;;3.13;1.63;;;15.50;85.20;;;14.12;100.00;96142.13;5001494;28;20072;-69
2022/09/04 04:17:47;;;;;;;2.42;1.73;;;15.30;85.30;;;14.09;100.00;96143.38;4967451;28;20034;-69
2022/09/04 04:20:45;;;;;;;2.70;1.77;;;15.30;85.40;;;14.08;100.00;96154.97;4986545;28;20052;-68
2022/09/04 04:23:46;;;;;;;1.70;1.50;;;15.30;85.50;;;14.05;100.00;96153.56;5006344;28;20064;-68
2022/09/04 04:27:12;;;;;;;3.00;1.85;;;15.20;85.50;;;14.05;100.00;96150.09;5010718;28;20026;-68
2022/09/04 04:30:06;;;;;;;3.63;1.85;;;15.30;85.40;;;14.04;100.00;96157.22;4999841;28;20490;-69
2022/09/04 04:32:58;;;;;;;2.50;1.73;;;15.30;85.50;;;14.03;100.00;96160.91;4987291;28;20118;-70
2022/09/04 04:35:35;;;;;;;3.25;2.10;;;15.30;85.60;;;14.04;100.00;96170.44;4995555;28;20051;-68
2022/09/04 04:38:22;;;;;;;3.38;1.90;;;15.30;85.60;;;14.03;100.00;96171.47;4980462;28;20129;-69
2022/09/04 04:41:14;;;;;;;4.07;1.88;;;15.30;85.60;;;14.03;100.00;96174.13;4992844;28;20037;-69
2022/09/04 04:44:12;;;;;;;3.47;1.83;;;15.30;85.70;;;14.04;100.00;96169.63;4995754;28;20038;-69
2022/09/04 04:46:57;;;;;;;2.47;1.63;;;15.30;85.60;;;14.05;100.00;96181.84;4989837;28;20064;-70
2022/09/04 04:49:50;;;;;;;2.30;1.90;;;15.40;85.40;;;14.06;100.00;96181.63;4980633;28;20030;-69
2022/09/04 04:52:28;;;;;;;4.30;2.05;;;15.40;85.30;;;14.07;100.00;96187.72;4986539;28;20034;-69
2022/09/04 04:55:09;;;;;;;4.75;1.83;;;15.40;85.50;;;14.07;100.00;96193.84;4969502;28;20042;-70
2022/09/04 04:57:59;;;;;;;3.88;2.97;;;15.40;85.50;;;14.10;100.00;96198.72;4997109;28;20060;-70
2022/09/04 05:00:54;;;;;;;7.07;6.07;;;15.40;85.30;;;14.13;100.00;96200.13;4993294;28;20038;-70
2022/09/04 05:04:10;;;;;;;7.60;6.80;;;15.50;85.20;;;14.12;100.00;96203.78;4999730;28;20093;-68
2022/09/04 05:06:44;;;;;;;8.40;5.28;;;15.50;85.20;;;14.12;100.00;96217.00;5005227;28;20109;-69
2022/09/04 05:09:56;;;;;;;5.55;4.22;;;15.50;85.30;;;14.14;100.00;96214.16;4987516;28;20457;-69
2022/09/04 05:13:07;;;;;;;4.22;2.50;;;15.50;85.50;;;14.12;100.00;96216.19;5005303;28;20038;-69
2022/09/04 05:15:57;;;;;;;3.88;2.10;;;15.40;85.30;;;14.09;100.00;96220.88;5002033;28;20403;-69
2022/09/04 05:19:01;;;;;;;2.00;1.80;;;15.40;85.40;;;14.10;100.00;96229.63;4997067;28;20465;-69
2022/09/04 05:21:36;;;;;;;3.72;1.80;;;15.40;85.30;;;14.09;100.00;96228.81;4970757;28;20038;-70
2022/09/04 05:24:42;;;;;;;3.78;1.60;;;15.40;85.40;;;14.10;100.00;96235.75;4989496;28;20497;-69
2022/09/04 05:27:45;;;;;;;2.25;1.77;;;15.40;85.20;;;14.10;100.00;96237.56;5006069;28;20041;-70
2022/09/04 05:30:44;;;;;;;2.42;1.90;;;15.40;85.10;;;14.09;100.00;96239.41;5001889;28;20049;-70
2022/09/04 05:33:09;;;;;;;3.40;1.50;;;15.40;85.20;;;14.10;100.00;96246.31;5003739;28;20053;-71
2022/09/04 05:36:01;;;;;;;2.78;1.92;;;15.50;85.00;;;14.15;100.00;96242.22;4987241;28;20038;-71
2022/09/04 05:39:15;;;;;;;2.80;1.95;;;15.50;85.00;;;14.18;100.00;96252.41;4981218;28;20112;-71
2022/09/04 05:42:30;;;;;;;3.03;1.80;;;15.60;85.00;;;14.21;100.00;96247.50;5002103;28;20113;-71
2022/09/04 05:45:20;;;;;;;2.47;1.70;;;15.60;84.80;;;14.25;100.00;96250.53;4981303;28;20120;-71
2022/09/04 05:48:19;;;;;;;4.43;1.70;;;15.60;84.50;;;14.29;100.00;96259.72;4989964;28;20117;-70
2022/09/04 05:51:17;;;;;;;3.00;2.03;;;15.70;84.10;;;14.32;100.00;96269.88;4971411;28;20522;-71
2022/09/04 05:54:21;;;;;;;2.42;1.58;;;15.70;84.10;;;14.34;100.00;96265.19;4999297;28;20035;-72
2022/09/04 05:57:10;;;;;;;4.63;1.80;;;15.80;84.20;;;14.40;100.00;96272.28;5000041;28;20108;-68
2022/09/04 05:59:43;;;;;;;3.00;1.98;;;15.90;84.00;;;14.46;100.00;96266.19;4997086;28;20047;-73
2022/09/04 06:02:56;;;;;;;2.50;1.50;;;16.00;84.30;;;14.52;100.00;96270.66;4986101;28;20069;-67
2022/09/04 06:05:45;;;;;;;2.17;1.50;;;16.00;83.60;;;14.51;100.00;96271.69;4997315;28;20030;-65
2022/09/04 06:09:01;;;;;;;5.07;1.70;;;15.90;83.40;;;14.50;100.00;96270.06;4990230;28;20042;-68
2022/09/04 06:12:26;;;;;;;3.63;2.03;;;15.80;83.60;;;14.51;100.00;96271.69;5002180;28;20092;-65
2022/09/04 06:15:20;;;;;;;7.85;6.32;;;15.80;83.50;;;14.55;100.00;96274.72;4990554;28;20719;-66
2022/09/04 06:17:50;;;;;;;3.25;2.50;;;16.00;83.80;;;14.54;100.00;96276.56;4998910;28;20046;-68
2022/09/04 06:20:29;;;;;;;3.72;2.00;;;16.00;83.30;;;14.56;100.00;96274.50;4998197;28;20038;-69
2022/09/04 06:23:04;;;;;;;4.15;1.75;;;16.00;83.30;;;14.61;100.00;96273.88;4987072;28;20041;-69
2022/09/04 06:26:19;;;;;;;6.97;6.10;;;16.10;83.30;;;14.66;100.00;96279.34;4984619;28;20117;-69
2022/09/04 06:29:28;;;;;;;4.43;3.15;;;16.20;83.30;;;14.69;100.00;96279.72;4988544;28;20486;-68
2022/09/04 06:32:27;;;;;;;3.33;2.08;;;16.20;82.90;;;14.70;100.00;96289.31;5003657;28;20115;-69
2022/09/04 06:35:42;;;;;;;3.58;1.60;;;16.20;83.20;;;14.73;100.00;96287.28;5017053;28;20041;-69
2022/09/04 06:38:46;;;;;;;3.10;1.60;;;16.30;83.20;;;14.81;100.00;96302.91;4997684;28;20050;-69
2022/09/04 06:41:28;;;;;;;2.55;1.52;;;16.30;83.30;;;14.83;100.00;96298.22;4968075;28;20124;-68
2022/09/04 06:44:32;;;;;;;2.55;2.35;;;16.40;83.40;;;14.92;100.00;96294.31;4999694;28;20030;-69
2022/09/04 06:47:09;;;;;;;5.10;2.80;;;16.50;83.70;;;15.00;100.00;96300.19;4991341;28;20034;-69
2022/09/04 06:50:05;;;;;;;2.90;2.20;;;16.60;83.20;;;15.13;100.00;96301.94;5005785;28;20030;-68
2022/09/04 06:52:56;;;;;;;3.55;2.55;;;16.80;82.40;;;15.24;100.00;96303.94;5007370;28;20068;-69
2022/09/04 06:55:47;;;;;;;1.88;1.45;;;17.00;82.90;;;15.37;100.00;96308.31;4983840;28;20035;-69
2022/09/04 06:58:58;;;;;;;2.58;2.17;;;17.10;81.70;;;15.51;100.00;96303.75;5004293;28;20128;-68
2022/09/04 07:01:39;;;;;;;;;;;17.30;81.50;;;15.60;100.00;96305.13;4998477;28;20038;-69
2022/09/04 07:04:23;;;;;;;8.20;4.28;;;17.40;80.90;;;15.73;100.00;96315.66;5003285;28;19937;-68
2022/09/04 07:07:10;;;;;;;3.00;2.25;;;17.60;80.70;;;15.92;100.00;96316.53;5006081;28;20081;-68
2022/09/04 07:09:47;;;;;;;5.05;3.00;;;17.80;80.00;;;16.13;100.00;96320.63;4988049;28;20037;-70
2022/09/04 07:12:32;;;;;;;7.97;5.55;;;18.20;79.90;;;16.34;100.00;96328.19;4987174;28;20095;-71
2022/09/04 07:15:48;;;;;;;2.47;1.90;;;18.50;78.60;;;16.66;100.00;96322.75;5003437;28;20034;-71
2022/09/04 07:19:06;;;;;;;2.10;1.50;;;19.10;76.90;;;16.97;100.00;96330.59;4989679;28;20042;-64
2022/09/04 07:22:15;;;;;;;1.90;1.60;;;19.90;73.50;;;17.35;100.00;96340.94;4974526;28;20458;-64
2022/09/04 07:24:40;;;;;;;2.67;2.10;;;20.10;72.50;;;17.60;100.00;96338.13;4988147;28;20047;-64
2022/09/04 07:27:46;;;;;;;3.35;2.42;;;20.40;73.00;;;17.89;100.00;96336.50;4998609;28;20070;-65
2022/09/04 07:30:13;;;;;;;3.13;2.05;;;20.60;72.10;;;18.18;100.00;96340.13;5004769;28;20050;-65
2022/09/04 07:32:50;;;;;;;2.10;1.35;;;21.10;70.80;;;18.46;100.00;96330.63;4964601;28;20030;-66
2022/09/04 07:35:33;;;;;;;4.68;2.55;;;21.20;69.60;;;18.69;100.00;96335.97;5016163;28;20042;-66
2022/09/04 07:38:34;;;;;;;3.03;2.00;;;21.20;68.30;;;19.00;100.00;96336.59;5000711;28;20117;-74
2022/09/04 07:41:15;;;;;;;4.05;1.98;;;21.50;68.10;;;19.24;100.00;96343.50;4985650;28;20055;-67
2022/09/04 07:44:02;;;;;;;2.78;1.50;;;21.60;67.50;;;19.63;100.00;96344.50;4978907;28;20384;-72
2022/09/04 07:47:10;;;;;;;2.35;1.35;;;22.10;66.50;;;20.11;100.00;96349.31;5005719;28;20030;-74
2022/09/04 07:49:53;;;;;;;1.85;1.30;;;22.70;64.70;;;20.60;100.00;96340.75;4989330;28;20049;-74
2022/09/04 07:53:04;;;;;;;3.33;1.52;;;23.10;63.50;;;21.14;100.00;96341.72;5008026;28;20501;-75
2022/09/04 07:55:40;;;;;;;2.20;1.40;;;23.60;61.20;;;21.62;99.69;96348.16;4980628;28;20510;-74
2022/09/04 07:58:57;;;;;;;1.63;1.20;;;24.10;59.10;;;22.10;94.42;96354.50;4983113;28;20431;-75
2022/09/04 08:02:01;;;;;;;2.55;1.35;;;24.30;58.10;;;22.58;92.36;96361.56;4987284;28;20031;-74
2022/09/04 08:05:08;;;;;;;3.70;1.30;;;24.90;57.50;;;23.06;88.31;96362.38;4992497;28;20058;-74
2022/09/04 08:07:36;;;;;;;2.60;1.05;;;25.20;55.50;;;23.45;93.25;96354.75;4996551;28;20042;-75
2022/09/04 08:10:32;;;;;;;4.88;1.52;;;25.60;55.30;;;23.94;86.94;96362.41;4988475;28;20034;-75
2022/09/04 08:13:08;;;;;;;2.15;1.30;;;26.20;55.50;;;24.31;86.50;96363.00;4999435;28;20524;-74
2022/09/04 08:15:41;;;;;;;4.43;1.33;;;26.40;52.60;;;24.69;82.39;96374.28;4988053;28;20146;-74
2022/09/04 08:18:34;;;;;;;2.10;1.15;;;26.60;53.00;;;25.02;79.42;96356.72;4987750;28;20062;-74
2022/09/04 08:21:28;;;;;;;17.90;15.20;;;26.90;51.60;;;25.41;79.19;96366.81;4973052;28;20053;-75
2022/09/04 08:24:43;;;;;;;2.40;2.10;;;27.30;52.10;;;25.71;76.98;96366.66;4972921;28;20057;-74
2022/09/04 08:27:37;;;;;;;3.55;2.15;;;27.60;51.00;;;26.03;73.78;96378.88;4991149;28;20026;-75
2022/09/04 08:30:07;;;;;;;2.00;1.30;;;27.60;49.10;;;26.21;75.93;96381.69;4972106;28;20414;-76
2022/09/04 08:32:55;;;;;;;2.35;1.42;;;28.00;49.70;;;26.42;71.78;96373.47;4988125;28;20034;-75
2022/09/04 08:35:38;;;;;;;9.00;7.82;;;27.90;48.40;;;26.58;74.29;96376.84;4990165;28;20031;-75
2022/09/04 08:38:28;;;;;;;2.80;1.70;;;28.10;49.90;;;26.67;70.38;96372.44;4989950;28;20058;-75
2022/09/04 08:41:12;;;;;;;;;;;28.10;48.20;;;26.75;70.47;96377.22;4996501;28;20035;-75
2022/09/04 08:44:42;;;;;;;3.55;1.40;;;28.10;48.50;;;26.96;70.04;96383.22;4972943;28;19952;-75
2022/09/04 08:47:26;;;;;;;2.55;1.38;;;28.50;48.70;;;27.06;70.23;96381.22;4990270;28;20048;-75
2022/09/04 08:50:23;;;;;;;1.65;1.30;;;28.70;48.40;;;27.23;68.40;96379.97;4960305;28;20050;-76
2022/09/04 08:53:45;;;;;;;2.00;1.50;;;28.80;47.60;;;27.34;65.86;96376.03;4991516;28;20034;-74
2022/09/04 08:56:24;;;;;;;2.58;1.40;;;28.80;47.00;;;27.40;68.53;96383.81;5001087;28;20060;-75
2022/09/04 08:59:18;;;;;;;2.05;1.20;;;29.10;48.00;;;27.48;65.29;96381.56;4984443;28;20038;-75
2022/09/04 09:02:25;;;;;;;1.95;1.50;;;28.90;45.90;;;27.43;64.27;96372.44;5006973;28;20030;-75
2022/09/04 09:05:52;;;;;;;3.85;3.28;;;28.70;46.10;;;27.49;64.76;96377.75;4992476;28;20426;-75
2022/09/04 09:08:48;;;;;;;2.75;1.58;;;29.00;46.50;;;27.53;64.07;96376.88;4990737;28;20030;-76
2022/09/04 09:11:20;;;;;;;11.63;8.63;;;29.10;45.70;;;27.70;64.54;96382.66;4977242;28;20434;-75
2022/09/04 09:14:33;;;;;;;4.43;2.92;;;29.60;45.20;;;27.79;63.91;96371.97;4998243;28;20026;-76
2022/09/04 09:17:13;;;;;;;2.65;1.50;;;29.60;45.80;;;28.07;63.88;96381.03;4996224;28;20018;-74
2022/09/04 09:19:59;;;;;;;;;;;30.10;45.30;;;28.19;63.16;96375.16;4996033;28;20458;-67
2022/09/04 09:23:15;;;;;;;1.85;1.17;;;30.10;44.40;;;28.27;62.42;96379.94;5000628;28;19995;-74
2022/09/04 09:26:25;;;;;;;2.75;1.40;;;29.90;45.10;;;28.36;62.13;96378.19;4995278;28;20092;-67
2022/09/04 09:29:15;;;;;;;4.72;2.75;;;30.10;44.00;;;28.52;60.93;96379.53;4998565;28;20038;-67
2022/09/04 09:32:34;;;;;;;4.60;4.20;;;30.30;43.90;;;28.76;60.85;96381.31;5001275;28;20375;-66
2022/09/04 09:35:12;;;;;;;2.90;2.00;;;30.60;43.00;;;28.89;60.38;96384.03;4993552;28;20192;-66
2022/09/04 09:38:34;;;;;;;2.92;2.00;;;30.90;42.50;;;29.01;58.17;96374.66;4998302;28;20115;-66
2022/09/04 09:41:16;;;;;;;1.98;1.17;;;30.90;42.10;;;29.13;58.34;96370.31;4988671;28;20039;-66
2022/09/04 09:44:02;;;;;;;1.40;0.80;;;31.10;42.00;;;29.33;57.47;96366.41;4997761;28;20132;-66
2022/09/04 09:47:00;;;;;;;1.40;1.00;;;31.50;40.90;;;29.52;55.94;96366.31;4986243;28;20034;-70
2022/09/04 09:49:55;;;;;;;1.58;1.02;;;31.50;40.70;;;29.79;56.43;96371.69;4971826;28;20053;-72
2022/09/04 09:52:42;;;;;;;3.50;1.10;;;32.00;40.80;;;30.02;56.40;96366.28;5004949;28;20030;-73
2022/09/04 09:55:49;;;;;;;2.75;0.90;;;32.10;41.10;;;30.17;53.71;96365.97;4988387;28;20534;-73
2022/09/04 09:58:53;;;;;;;3.63;1.10;;;32.30;38.80;;;30.37;53.37;96360.06;4997018;28;20038;-74
2022/09/04 10:01:24;;;;;;;2.67;1.08;;;32.60;38.90;;;30.60;54.60;96365.47;4994010;28;20026;-72
2022/09/04 10:04:10;;;;;;;1.00;0.90;;;33.20;38.60;;;30.81;53.70;96355.72;5001622;28;20096;-73
2022/09/04 10:07:20;;;;;;;3.03;0.90;;;33.30;38.50;;;31.16;50.90;96350.41;5003374;28;20030;-73
2022/09/04 10:10:23;;;;;;;4.55;1.25;;;33.60;36.60;;;31.66;49.77;96340.00;5000425;28;20061;-66
2022/09/04 10:13:40;;;;;;;1.65;1.00;;;34.10;36.20;;;32.25;48.79;96349.34;4985146;28;20038;-66
2022/09/04 10:17:02;;;;;;;1.15;0.90;;;34.90;35.60;;;32.89;48.19;96345.88;5013406;28;20089;-65
2022/09/04 10:19:32;;;;;;;2.35;1.02;;;35.50;34.80;;;32.74;48.33;96352.63;5007753;28;20068;-64
2022/09/04 10:22:11;;;;;;;1.40;1.00;;;34.20;35.50;;;32.36;47.87;96346.28;5000963;28;20521;-66
2022/09/04 10:25:22;;;;;;;3.65;0.80;;;34.10;36.30;;;31.99;47.03;96349.34;4982786;28;20064;-67
2022/09/04 10:28:48;;;;;;;15.70;14.13;;;33.30;36.20;;;31.63;46.94;96352.31;4997441;28;20109;-66
2022/09/04 10:31:39;;;;;;;2.97;1.08;;;33.20;35.90;;;31.54;46.75;96354.22;4975458;28;20096;-67
2022/09/04 10:34:54;;;;;;;2.65;0.98;;;33.70;35.40;;;31.83;47.58;96355.56;4988432;28;20037;-66
2022/09/04 10:38:07;;;;;;;2.33;1.77;;;35.00;35.00;;;31.85;45.85;96353.34;4992185;28;20160;-72
2022/09/04 10:41:13;;;;;;;6.55;5.95;;;34.30;34.70;;;31.35;47.35;96365.38;4994851;28;20454;-72
2022/09/04 10:44:24;;;;;;;3.78;3.08;;;33.10;37.20;;;30.67;47.24;96357.72;5000277;28;20044;-69
2022/09/04 10:47:27;;;;;;;4.43;2.45;;;32.10;37.30;;;30.07;49.20;96360.78;5006329;28;20030;-68
2022/09/04 10:50:26;;;;;;;1.30;0.95;;;31.40;38.90;;;29.66;49.75;96366.31;5002523;28;20026;-71
2022/09/04 10:53:13;;;;;;;18.27;16.40;;;31.00;39.80;;;29.23;51.14;96361.19;4966687;28;20117;-71
2022/09/04 10:55:56;;;;;;;2.50;1.38;;;30.60;41.00;;;28.94;52.66;96358.78;4993171;28;20034;-71
2022/09/04 10:58:53;;;;;;;1.52;0.90;;;30.50;41.90;;;28.65;53.35;96359.81;4982626;28;20110;-70
2022/09/04 11:02:03;;;;;;;2.05;1.00;;;30.10;42.20;;;28.42;54.17;96371.59;5004895;28;20461;-70
2022/09/04 11:05:06;;;;;;;3.97;0.90;;;30.10;42.90;;;28.11;53.68;96365.84;4970816;28;20117;-72
2022/09/04 11:07:54;;;;;;;1.27;0.95;;;29.60;42.50;;;27.89;55.47;96366.44;4982549;28;20068;-71
2022/09/04 11:10:25;;;;;;;1.30;0.73;;;30.10;42.50;;;28.26;54.48;96367.50;4987123;28;20118;-71
2022/09/04 11:13:21;;;;;;;0.98;0.80;;;31.20;40.30;;;28.91;55.26;96362.06;4982639;28;20521;-69
2022/09/04 11:16:20;;;;;;;1.88;0.80;;;33.10;38.50;;;29.64;50.46;96363.06;4993982;28;20129;-69
2022/09/04 11:19:09;;;;;;;1.27;0.80;;;33.90;34.90;;;30.38;49.44;96360.88;4965847;28;20082;-69
2022/09/04 11:22:01;;;;;;;1.58;0.73;;;35.90;32.90;;;31.23;47.58;96361.66;4976934;28;20038;-70
2022/09/04 11:25:03;;;;;;;4.38;1.10;;;37.40;29.90;;;32.01;44.66;96346.31;5000350;28;20160;-70
2022/09/04 11:28:08;;;;;;;1.88;0.80;;;37.80;29.30;;;32.45;42.61;96339.72;4994427;28;20045;-69
2022/09/04 11:31:02;;;;;;;1.67;0.80;;;37.30;28.10;;;32.32;43.52;96348.06;4991712;28;20026;-70
2022/09/04 11:34:12;;;;;;;1.48;0.60;;;35.70;31.50;;;31.92;42.71;96342.78;4992124;28;20034;-70
2022/09/04 11:37:14;;;;;;;1.52;0.77;;;34.30;33.00;;;31.48;42.91;96339.19;4992598;28;20379;-71
2022/09/04 11:39:51;;;;;;;2.03;0.70;;;33.10;34.30;;;31.02;45.13;96350.53;4997614;28;20081;-69
2022/09/04 11:42:55;;;;;;;1.40;0.60;;;32.30;36.40;;;30.74;47.50;96348.00;4993428;28;20038;-70
2022/09/04 11:45:54;;;;;;;1.25;0.98;;;33.10;36.90;;;31.21;43.39;96345.66;4981291;28;20034;-70
2022/09/04 11:49:08;;;;;;;0.82;0.60;;;35.60;30.60;;;31.49;42.20;96346.22;5005972;28;20029;-70
2022/09/04 11:52:02;;;;;;;2.33;0.80;;;34.70;31.30;;;31.42;42.90;96337.72;4989987;28;20089;-70
2022/09/04 11:55:12;;;;;;;1.63;0.77;;;34.50;32.50;;;31.69;42.63;96351.06;4990771;28;20661;-65
2022/09/04 11:58:15;;;;;;;1.05;0.75;;;35.90;31.10;;;31.86;42.25;96341.31;4991902;28;20050;-65
2022/09/04 12:01:16;;;;;;;27.65;24.98;;;35.00;32.00;;;31.43;43.68;96354.84;4972557;28;20041;-64
2022/09/04 12:04:14;;;;;;;2.08;1.52;;;33.50;34.50;;;31.25;43.19;96354.00;4979717;28;20040;-65
2022/09/04 12:07:17;;;;;;;1.33;0.80;;;34.50;33.10;;;31.61;41.80;96345.59;5001667;28;20566;-65